sensor_id;sensor_type;location;lat;lon;timestamp;temperature;humidity
41922;DHT22;27609;51.002;5.354;2023-11-19T00:02:19;12.80;99.90
41922;DHT22;27609;51.002;5.354;2023-11-19T00:04:45;12.80;99.90
41922;DHT22;27609;51.002;5.354;2023-11-19T00:07:10;12.80;99.90
41922;DHT22;27609;51.002;5.354;2023-11-19T00:09:38;12.80;99.90
41922;DHT22;27609;51.002;5.354;2023-11-19T00:12:05;12.80;99.90
41922;DHT22;27609;51.002;5.354;2023-11-19T00:14:31;12.80;99.90
41922;DHT22;27609;51.002;5.354;2023-11-19T00:16:56;12.80;99.90
41922;DHT22;27609;51.002;5.354;2023-11-19T00:19:22;12.80;99.90
41922;DHT22;27609;51.002;5.354;2023-11-19T00:21:48;12.80;99.90
41922;DHT22;27609;51.002;5.354;2023-11-19T00:24:14;12.90;99.90
41922;DHT22;27609;51.002;5.354;2023-11-19T00:26:42;12.80;99.90
41922;DHT22;27609;51.002;5.354;2023-11-19T00:29:08;12.80;99.90
41922;DHT22;27609;51.002;5.354;2023-11-19T00:31:34;12.80;99.90
41922;DHT22;27609;51.002;5.354;2023-11-19T00:33:59;12.90;99.90
41922;DHT22;27609;51.002;5.354;2023-11-19T00:36:27;12.90;99.90
41922;DHT22;27609;51.002;5.354;2023-11-19T00:38:54;12.90;99.90
41922;DHT22;27609;51.002;5.354;2023-11-19T00:41:20;12.90;99.90
41922;DHT22;27609;51.002;5.354;2023-11-19T00:43:46;12.90;99.90
41922;DHT22;27609;51.002;5.354;2023-11-19T00:46:11;12.90;99.90
41922;DHT22;27609;51.002;5.354;2023-11-19T00:48:37;12.90;99.90
41922;DHT22;27609;51.002;5.354;2023-11-19T00:51:03;12.90;99.90
41922;DHT22;27609;51.002;5.354;2023-11-19T00:53:30;12.80;99.90
41922;DHT22;27609;51.002;5.354;2023-11-19T00:55:55;12.90;99.90
41922;DHT22;27609;51.002;5.354;2023-11-19T00:58:21;12.90;99.90
41922;DHT22;27609;51.002;5.354;2023-11-19T01:00:47;12.90;99.90
41922;DHT22;27609;51.002;5.354;2023-11-19T01:03:13;12.90;99.90
41922;DHT22;27609;51.002;5.354;2023-11-19T01:05:40;12.90;99.90
41922;DHT22;27609;51.002;5.354;2023-11-19T01:08:05;12.90;99.90
41922;DHT22;27609;51.002;5.354;2023-11-19T01:10:31;12.90;99.90
41922;DHT22;27609;51.002;5.354;2023-11-19T01:12:57;12.90;99.90
41922;DHT22;27609;51.002;5.354;2023-11-19T01:15:23;13.00;99.90
41922;DHT22;27609;51.002;5.354;2023-11-19T01:17:49;13.00;99.90
41922;DHT22;27609;51.002;5.354;2023-11-19T01:20:14;13.00;99.90
41922;DHT22;27609;51.002;5.354;2023-11-19T01:22:40;13.00;99.90
41922;DHT22;27609;51.002;5.354;2023-11-19T01:25:07;13.00;99.90
41922;DHT22;27609;51.002;5.354;2023-11-19T01:27:33;13.00;99.90
41922;DHT22;27609;51.002;5.354;2023-11-19T01:30:02;13.10;99.90
41922;DHT22;27609;51.002;5.354;2023-11-19T01:32:46;13.10;99.90
41922;DHT22;27609;51.002;5.354;2023-11-19T01:35:12;13.10;99.90
41922;DHT22;27609;51.002;5.354;2023-11-19T01:37:37;13.10;99.90
41922;DHT22;27609;51.002;5.354;2023-11-19T01:40:03;13.10;99.90
41922;DHT22;27609;51.002;5.354;2023-11-19T01:42:35;13.10;99.90
41922;DHT22;27609;51.002;5.354;2023-11-19T01:45:01;13.10;99.90
41922;DHT22;27609;51.002;5.354;2023-11-19T01:47:30;13.10;99.90
41922;DHT22;27609;51.002;5.354;2023-11-19T01:49:57;13.20;99.90
41922;DHT22;27609;51.002;5.354;2023-11-19T01:52:23;13.10;99.90
41922;DHT22;27609;51.002;5.354;2023-11-19T01:54:53;13.10;99.90
41922;DHT22;27609;51.002;5.354;2023-11-19T01:57:20;13.20;99.90
41922;DHT22;27609;51.002;5.354;2023-11-19T01:59:47;13.20;99.90
41922;DHT22;27609;51.002;5.354;2023-11-19T02:02:13;13.10;99.90
41922;DHT22;27609;51.002;5.354;2023-11-19T02:04:39;13.20;99.90
41922;DHT22;27609;51.002;5.354;2023-11-19T02:07:06;13.20;99.90
41922;DHT22;27609;51.002;5.354;2023-11-19T02:09:32;13.20;99.90
41922;DHT22;27609;51.002;5.354;2023-11-19T02:11:57;13.20;99.90
41922;DHT22;27609;51.002;5.354;2023-11-19T02:14:25;13.20;99.90
41922;DHT22;27609;51.002;5.354;2023-11-19T02:16:52;13.20;99.90
41922;DHT22;27609;51.002;5.354;2023-11-19T02:19:20;13.20;99.90
41922;DHT22;27609;51.002;5.354;2023-11-19T02:21:46;13.20;99.90
41922;DHT22;27609;51.002;5.354;2023-11-19T02:24:14;13.10;99.90
41922;DHT22;27609;51.002;5.354;2023-11-19T02:26:59;13.20;99.90
41922;DHT22;27609;51.002;5.354;2023-11-19T02:29:26;13.20;99.90
41922;DHT22;27609;51.002;5.354;2023-11-19T02:31:52;13.10;99.90
41922;DHT22;27609;51.002;5.354;2023-11-19T02:34:20;13.10;99.90
41922;DHT22;27609;51.002;5.354;2023-11-19T02:36:48;13.10;99.90
41922;DHT22;27609;51.002;5.354;2023-11-19T02:39:15;13.10;99.90
41922;DHT22;27609;51.002;5.354;2023-11-19T02:41:46;13.00;99.90
41922;DHT22;27609;51.002;5.354;2023-11-19T02:44:12;13.00;99.90
41922;DHT22;27609;51.002;5.354;2023-11-19T02:46:39;13.00;99.90
41922;DHT22;27609;51.002;5.354;2023-11-19T02:49:07;12.90;99.90
41922;DHT22;27609;51.002;5.354;2023-11-19T02:51:33;12.90;99.90
41922;DHT22;27609;51.002;5.354;2023-11-19T02:54:00;12.90;99.90
41922;DHT22;27609;51.002;5.354;2023-11-19T02:56:26;12.80;99.90
41922;DHT22;27609;51.002;5.354;2023-11-19T02:58:52;12.80;99.90
41922;DHT22;27609;51.002;5.354;2023-11-19T03:01:25;12.80;99.90
41922;DHT22;27609;51.002;5.354;2023-11-19T03:04:02;12.70;99.90
41922;DHT22;27609;51.002;5.354;2023-11-19T03:06:29;12.80;99.90
41922;DHT22;27609;51.002;5.354;2023-11-19T03:08:55;12.70;99.90
41922;DHT22;27609;51.002;5.354;2023-11-19T03:11:21;12.70;99.90
41922;DHT22;27609;51.002;5.354;2023-11-19T03:13:47;12.60;99.90
41922;DHT22;27609;51.002;5.354;2023-11-19T03:16:13;12.70;99.90
41922;DHT22;27609;51.002;5.354;2023-11-19T03:18:39;12.70;99.90
41922;DHT22;27609;51.002;5.354;2023-11-19T03:21:08;12.70;99.90
41922;DHT22;27609;51.002;5.354;2023-11-19T03:23:34;12.70;99.90
41922;DHT22;27609;51.002;5.354;2023-11-19T03:26:00;12.70;99.90
41922;DHT22;27609;51.002;5.354;2023-11-19T03:28:29;12.70;99.90
41922;DHT22;27609;51.002;5.354;2023-11-19T03:30:54;12.70;99.90
41922;DHT22;27609;51.002;5.354;2023-11-19T03:33:20;12.60;99.90
41922;DHT22;27609;51.002;5.354;2023-11-19T03:35:46;12.60;99.90
41922;DHT22;27609;51.002;5.354;2023-11-19T03:38:12;12.60;99.90
41922;DHT22;27609;51.002;5.354;2023-11-19T03:40:38;12.50;99.90
41922;DHT22;27609;51.002;5.354;2023-11-19T03:43:04;12.50;99.90
41922;DHT22;27609;51.002;5.354;2023-11-19T03:45:30;12.50;99.90
41922;DHT22;27609;51.002;5.354;2023-11-19T03:47:56;12.40;99.90
41922;DHT22;27609;51.002;5.354;2023-11-19T03:50:22;12.40;99.90
41922;DHT22;27609;51.002;5.354;2023-11-19T03:52:48;12.40;99.90
41922;DHT22;27609;51.002;5.354;2023-11-19T03:55:13;12.40;99.90
41922;DHT22;27609;51.002;5.354;2023-11-19T03:57:39;12.40;99.90
41922;DHT22;27609;51.002;5.354;2023-11-19T04:00:05;12.40;99.90
41922;DHT22;27609;51.002;5.354;2023-11-19T04:02:39;12.40;99.90
41922;DHT22;27609;51.002;5.354;2023-11-19T04:05:05;12.40;99.90
41922;DHT22;27609;51.002;5.354;2023-11-19T04:07:32;12.50;99.90
41922;DHT22;27609;51.002;5.354;2023-11-19T04:09:58;12.40;99.90
41922;DHT22;27609;51.002;5.354;2023-11-19T04:12:24;12.40;99.90
41922;DHT22;27609;51.002;5.354;2023-11-19T04:14:49;12.40;99.90
41922;DHT22;27609;51.002;5.354;2023-11-19T04:17:15;12.20;99.90
41922;DHT22;27609;51.002;5.354;2023-11-19T04:19:41;12.20;99.90
41922;DHT22;27609;51.002;5.354;2023-11-19T04:22:10;12.20;99.90
41922;DHT22;27609;51.002;5.354;2023-11-19T04:24:36;12.20;99.90
41922;DHT22;27609;51.002;5.354;2023-11-19T04:27:02;12.20;99.90
41922;DHT22;27609;51.002;5.354;2023-11-19T04:29:30;12.20;99.90
41922;DHT22;27609;51.002;5.354;2023-11-19T04:31:56;12.20;99.90
41922;DHT22;27609;51.002;5.354;2023-11-19T04:34:22;12.10;99.90
41922;DHT22;27609;51.002;5.354;2023-11-19T04:36:47;12.10;99.90
41922;DHT22;27609;51.002;5.354;2023-11-19T04:39:13;12.20;99.90
41922;DHT22;27609;51.002;5.354;2023-11-19T04:44:14;12.20;99.90
41922;DHT22;27609;51.002;5.354;2023-11-19T04:46:41;12.20;99.90
41922;DHT22;27609;51.002;5.354;2023-11-19T04:49:08;12.20;99.90
41922;DHT22;27609;51.002;5.354;2023-11-19T04:51:43;12.10;99.90
41922;DHT22;27609;51.002;5.354;2023-11-19T04:54:09;12.20;99.90
41922;DHT22;27609;51.002;5.354;2023-11-19T04:56:36;12.20;99.90
41922;DHT22;27609;51.002;5.354;2023-11-19T04:59:05;12.20;99.90
41922;DHT22;27609;51.002;5.354;2023-11-19T05:01:35;12.20;99.90
41922;DHT22;27609;51.002;5.354;2023-11-19T05:04:01;12.20;99.90
41922;DHT22;27609;51.002;5.354;2023-11-19T05:06:30;12.10;99.90
41922;DHT22;27609;51.002;5.354;2023-11-19T05:08:58;12.10;99.90
41922;DHT22;27609;51.002;5.354;2023-11-19T05:11:26;12.20;99.90
41922;DHT22;27609;51.002;5.354;2023-11-19T05:13:53;12.20;99.90
41922;DHT22;27609;51.002;5.354;2023-11-19T05:16:19;12.30;99.90
41922;DHT22;27609;51.002;5.354;2023-11-19T05:18:46;12.30;99.90
41922;DHT22;27609;51.002;5.354;2023-11-19T05:21:12;12.20;99.90
41922;DHT22;27609;51.002;5.354;2023-11-19T05:23:38;12.20;99.90
41922;DHT22;27609;51.002;5.354;2023-11-19T05:26:05;12.20;99.90
41922;DHT22;27609;51.002;5.354;2023-11-19T05:28:30;12.20;99.90
41922;DHT22;27609;51.002;5.354;2023-11-19T05:30:57;12.10;99.90
41922;DHT22;27609;51.002;5.354;2023-11-19T05:33:22;12.00;99.90
41922;DHT22;27609;51.002;5.354;2023-11-19T05:35:48;12.00;99.90
41922;DHT22;27609;51.002;5.354;2023-11-19T05:38:14;12.00;99.90
41922;DHT22;27609;51.002;5.354;2023-11-19T05:40:40;12.00;99.90
41922;DHT22;27609;51.002;5.354;2023-11-19T05:43:06;11.90;99.90
41922;DHT22;27609;51.002;5.354;2023-11-19T05:45:32;11.90;99.90
41922;DHT22;27609;51.002;5.354;2023-11-19T05:47:58;11.90;99.90
41922;DHT22;27609;51.002;5.354;2023-11-19T05:50:23;11.80;99.90
41922;DHT22;27609;51.002;5.354;2023-11-19T05:52:49;11.80;99.90
41922;DHT22;27609;51.002;5.354;2023-11-19T05:55:15;11.80;99.90
41922;DHT22;27609;51.002;5.354;2023-11-19T05:57:41;11.70;99.90
41922;DHT22;27609;51.002;5.354;2023-11-19T06:00:07;11.70;99.90
41922;DHT22;27609;51.002;5.354;2023-11-19T06:02:34;11.70;99.90
41922;DHT22;27609;51.002;5.354;2023-11-19T06:05:00;11.70;99.90
41922;DHT22;27609;51.002;5.354;2023-11-19T06:07:26;11.60;99.90
41922;DHT22;27609;51.002;5.354;2023-11-19T06:09:53;11.60;99.90
41922;DHT22;27609;51.002;5.354;2023-11-19T06:12:18;11.50;99.90
41922;DHT22;27609;51.002;5.354;2023-11-19T06:14:44;11.50;99.90
41922;DHT22;27609;51.002;5.354;2023-11-19T06:17:09;11.50;99.90
41922;DHT22;27609;51.002;5.354;2023-11-19T06:19:36;11.50;99.90
41922;DHT22;27609;51.002;5.354;2023-11-19T06:22:03;11.40;99.90
41922;DHT22;27609;51.002;5.354;2023-11-19T06:24:29;11.40;99.90
41922;DHT22;27609;51.002;5.354;2023-11-19T06:26:55;11.40;99.90
41922;DHT22;27609;51.002;5.354;2023-11-19T06:29:20;11.40;99.90
41922;DHT22;27609;51.002;5.354;2023-11-19T06:31:46;11.30;99.90
41922;DHT22;27609;51.002;5.354;2023-11-19T06:34:14;11.30;99.90
41922;DHT22;27609;51.002;5.354;2023-11-19T06:36:40;11.20;99.90
41922;DHT22;27609;51.002;5.354;2023-11-19T06:39:06;11.30;99.90
41922;DHT22;27609;51.002;5.354;2023-11-19T06:41:31;11.30;99.90
41922;DHT22;27609;51.002;5.354;2023-11-19T06:43:57;11.30;99.90
41922;DHT22;27609;51.002;5.354;2023-11-19T06:46:22;11.30;99.90
41922;DHT22;27609;51.002;5.354;2023-11-19T06:48:48;11.30;99.90
41922;DHT22;27609;51.002;5.354;2023-11-19T06:51:14;11.30;99.90
41922;DHT22;27609;51.002;5.354;2023-11-19T06:53:39;11.30;99.90
41922;DHT22;27609;51.002;5.354;2023-11-19T06:56:17;11.30;99.90
41922;DHT22;27609;51.002;5.354;2023-11-19T06:58:42;11.30;99.90
41922;DHT22;27609;51.002;5.354;2023-11-19T07:01:08;11.30;99.90
41922;DHT22;27609;51.002;5.354;2023-11-19T07:03:35;11.30;99.90
41922;DHT22;27609;51.002;5.354;2023-11-19T07:06:01;11.30;99.90
41922;DHT22;27609;51.002;5.354;2023-11-19T07:08:26;11.30;99.90
41922;DHT22;27609;51.002;5.354;2023-11-19T07:10:52;11.30;99.90
41922;DHT22;27609;51.002;5.354;2023-11-19T07:13:18;11.20;99.90
41922;DHT22;27609;51.002;5.354;2023-11-19T07:15:44;11.30;99.90
41922;DHT22;27609;51.002;5.354;2023-11-19T07:18:10;11.30;99.90
41922;DHT22;27609;51.002;5.354;2023-11-19T07:20:37;11.20;99.90
41922;DHT22;27609;51.002;5.354;2023-11-19T07:23:03;11.20;99.90
41922;DHT22;27609;51.002;5.354;2023-11-19T07:25:29;11.30;99.90
41922;DHT22;27609;51.002;5.354;2023-11-19T07:27:55;11.30;99.90
41922;DHT22;27609;51.002;5.354;2023-11-19T07:30:21;11.40;99.90
41922;DHT22;27609;51.002;5.354;2023-11-19T07:32:47;11.40;99.90
41922;DHT22;27609;51.002;5.354;2023-11-19T07:35:14;11.40;99.90
41922;DHT22;27609;51.002;5.354;2023-11-19T07:37:41;11.50;99.90
41922;DHT22;27609;51.002;5.354;2023-11-19T07:40:08;11.50;99.90
41922;DHT22;27609;51.002;5.354;2023-11-19T07:42:34;11.60;99.90
41922;DHT22;27609;51.002;5.354;2023-11-19T07:44:59;11.60;99.90
41922;DHT22;27609;51.002;5.354;2023-11-19T07:47:25;11.60;99.90
41922;DHT22;27609;51.002;5.354;2023-11-19T07:49:51;11.70;99.90
41922;DHT22;27609;51.002;5.354;2023-11-19T07:52:16;11.70;99.90
41922;DHT22;27609;51.002;5.354;2023-11-19T07:54:42;11.80;99.90
41922;DHT22;27609;51.002;5.354;2023-11-19T07:57:08;11.80;99.90
41922;DHT22;27609;51.002;5.354;2023-11-19T07:59:33;11.80;99.90
41922;DHT22;27609;51.002;5.354;2023-11-19T08:01:59;11.90;99.90
41922;DHT22;27609;51.002;5.354;2023-11-19T08:04:24;11.90;99.90
41922;DHT22;27609;51.002;5.354;2023-11-19T08:06:50;12.00;99.90
41922;DHT22;27609;51.002;5.354;2023-11-19T08:09:17;12.20;99.90
41922;DHT22;27609;51.002;5.354;2023-11-19T08:11:43;12.50;99.90
41922;DHT22;27609;51.002;5.354;2023-11-19T08:14:09;12.90;99.90
41922;DHT22;27609;51.002;5.354;2023-11-19T08:16:35;13.10;99.90
41922;DHT22;27609;51.002;5.354;2023-11-19T08:19:01;13.20;99.90
41922;DHT22;27609;51.002;5.354;2023-11-19T08:21:28;13.30;99.90
41922;DHT22;27609;51.002;5.354;2023-11-19T08:23:54;13.30;99.90
41922;DHT22;27609;51.002;5.354;2023-11-19T08:26:20;13.40;99.90
41922;DHT22;27609;51.002;5.354;2023-11-19T08:28:45;13.40;99.90
41922;DHT22;27609;51.002;5.354;2023-11-19T08:31:11;13.80;99.90
41922;DHT22;27609;51.002;5.354;2023-11-19T08:33:37;14.20;99.90
41922;DHT22;27609;51.002;5.354;2023-11-19T08:36:03;14.10;99.90
41922;DHT22;27609;51.002;5.354;2023-11-19T08:38:29;13.80;99.90
41922;DHT22;27609;51.002;5.354;2023-11-19T08:40:55;13.50;99.90
41922;DHT22;27609;51.002;5.354;2023-11-19T08:43:26;13.60;99.90
41922;DHT22;27609;51.002;5.354;2023-11-19T08:45:51;13.90;99.90
41922;DHT22;27609;51.002;5.354;2023-11-19T08:48:17;13.90;99.90
41922;DHT22;27609;51.002;5.354;2023-11-19T08:50:43;13.50;99.90
41922;DHT22;27609;51.002;5.354;2023-11-19T08:53:09;13.30;99.90
41922;DHT22;27609;51.002;5.354;2023-11-19T08:55:34;13.50;99.90
41922;DHT22;27609;51.002;5.354;2023-11-19T08:58:00;14.20;99.90
41922;DHT22;27609;51.002;5.354;2023-11-19T09:00:26;14.80;99.90
41922;DHT22;27609;51.002;5.354;2023-11-19T09:02:52;15.10;99.90
41922;DHT22;27609;51.002;5.354;2023-11-19T09:05:18;15.10;99.90
41922;DHT22;27609;51.002;5.354;2023-11-19T09:07:43;14.70;99.90
41922;DHT22;27609;51.002;5.354;2023-11-19T09:10:09;14.50;99.90
41922;DHT22;27609;51.002;5.354;2023-11-19T09:12:37;14.40;99.90
41922;DHT22;27609;51.002;5.354;2023-11-19T09:15:03;14.50;99.90
41922;DHT22;27609;51.002;5.354;2023-11-19T09:17:28;15.00;99.90
41922;DHT22;27609;51.002;5.354;2023-11-19T09:19:55;15.30;99.90
41922;DHT22;27609;51.002;5.354;2023-11-19T09:22:20;15.70;99.90
41922;DHT22;27609;51.002;5.354;2023-11-19T09:24:46;16.20;99.90
41922;DHT22;27609;51.002;5.354;2023-11-19T09:27:13;15.90;99.90
41922;DHT22;27609;51.002;5.354;2023-11-19T09:29:39;15.20;99.90
41922;DHT22;27609;51.002;5.354;2023-11-19T09:32:05;15.60;99.90
41922;DHT22;27609;51.002;5.354;2023-11-19T09:34:31;16.00;99.90
41922;DHT22;27609;51.002;5.354;2023-11-19T09:36:57;16.10;99.90
41922;DHT22;27609;51.002;5.354;2023-11-19T09:39:23;15.70;99.90
41922;DHT22;27609;51.002;5.354;2023-11-19T09:41:48;15.20;99.90
41922;DHT22;27609;51.002;5.354;2023-11-19T09:44:14;14.60;99.90
41922;DHT22;27609;51.002;5.354;2023-11-19T09:46:43;14.20;99.90
41922;DHT22;27609;51.002;5.354;2023-11-19T09:49:10;13.90;99.90
41922;DHT22;27609;51.002;5.354;2023-11-19T09:51:37;13.90;99.90
41922;DHT22;27609;51.002;5.354;2023-11-19T09:54:03;13.80;99.90
41922;DHT22;27609;51.002;5.354;2023-11-19T09:56:29;13.70;99.90
41922;DHT22;27609;51.002;5.354;2023-11-19T09:58:59;13.60;99.90
41922;DHT22;27609;51.002;5.354;2023-11-19T10:01:25;13.40;99.90
41922;DHT22;27609;51.002;5.354;2023-11-19T10:03:52;13.20;99.90
41922;DHT22;27609;51.002;5.354;2023-11-19T10:06:20;13.40;99.90
41922;DHT22;27609;51.002;5.354;2023-11-19T10:08:46;14.40;99.90
41922;DHT22;27609;51.002;5.354;2023-11-19T10:11:12;15.50;99.90
41922;DHT22;27609;51.002;5.354;2023-11-19T10:13:38;16.00;99.90
41922;DHT22;27609;51.002;5.354;2023-11-19T10:16:07;16.50;99.90
41922;DHT22;27609;51.002;5.354;2023-11-19T10:18:34;16.70;99.90
41922;DHT22;27609;51.002;5.354;2023-11-19T10:21:04;15.80;99.90
41922;DHT22;27609;51.002;5.354;2023-11-19T10:23:31;15.30;99.90
41922;DHT22;27609;51.002;5.354;2023-11-19T10:26:03;16.00;99.90
41922;DHT22;27609;51.002;5.354;2023-11-19T10:28:39;16.80;99.90
41922;DHT22;27609;51.002;5.354;2023-11-19T10:31:05;16.80;99.90
41922;DHT22;27609;51.002;5.354;2023-11-19T10:33:31;17.00;99.90
41922;DHT22;27609;51.002;5.354;2023-11-19T10:35:57;16.80;99.90
41922;DHT22;27609;51.002;5.354;2023-11-19T10:38:24;17.20;99.90
41922;DHT22;27609;51.002;5.354;2023-11-19T10:40:51;17.20;99.90
41922;DHT22;27609;51.002;5.354;2023-11-19T10:43:17;16.70;99.90
41922;DHT22;27609;51.002;5.354;2023-11-19T10:45:43;16.10;99.90
41922;DHT22;27609;51.002;5.354;2023-11-19T10:48:09;15.20;99.90
41922;DHT22;27609;51.002;5.354;2023-11-19T10:50:37;15.30;99.90
41922;DHT22;27609;51.002;5.354;2023-11-19T10:53:04;15.40;99.90
41922;DHT22;27609;51.002;5.354;2023-11-19T10:55:31;15.40;99.90
41922;DHT22;27609;51.002;5.354;2023-11-19T10:57:59;16.20;99.90
41922;DHT22;27609;51.002;5.354;2023-11-19T11:00:30;16.60;99.90
41922;DHT22;27609;51.002;5.354;2023-11-19T11:03:09;15.90;99.90
41922;DHT22;27609;51.002;5.354;2023-11-19T11:05:36;15.60;99.90
41922;DHT22;27609;51.002;5.354;2023-11-19T11:08:06;15.40;99.90
41922;DHT22;27609;51.002;5.354;2023-11-19T11:10:43;15.00;99.90
41922;DHT22;27609;51.002;5.354;2023-11-19T11:13:10;14.90;99.90
41922;DHT22;27609;51.002;5.354;2023-11-19T11:15:37;14.70;99.90
41922;DHT22;27609;51.002;5.354;2023-11-19T11:18:03;14.60;99.90
41922;DHT22;27609;51.002;5.354;2023-11-19T11:20:33;14.50;99.90
41922;DHT22;27609;51.002;5.354;2023-11-19T11:28:20;14.30;99.90
41922;DHT22;27609;51.002;5.354;2023-11-19T11:31:01;14.40;99.90
41922;DHT22;27609;51.002;5.354;2023-11-19T11:36:23;14.10;99.90
41922;DHT22;27609;51.002;5.354;2023-11-19T11:38:49;13.90;99.90
41922;DHT22;27609;51.002;5.354;2023-11-19T11:41:22;13.60;99.90
41922;DHT22;27609;51.002;5.354;2023-11-19T11:43:52;13.50;99.90
41922;DHT22;27609;51.002;5.354;2023-11-19T11:49:07;13.20;99.90
41922;DHT22;27609;51.002;5.354;2023-11-19T11:54:11;13.20;99.90
41922;DHT22;27609;51.002;5.354;2023-11-19T11:57:12;13.30;99.90
41922;DHT22;27609;51.002;5.354;2023-11-19T12:02:13;13.60;99.90
41922;DHT22;27609;51.002;5.354;2023-11-19T12:04:40;13.50;99.90
41922;DHT22;27609;51.002;5.354;2023-11-19T12:07:14;13.40;99.90
41922;DHT22;27609;51.002;5.354;2023-11-19T12:09:52;13.40;99.90
41922;DHT22;27609;51.002;5.354;2023-11-19T12:12:23;13.30;99.90
41922;DHT22;27609;51.002;5.354;2023-11-19T12:20:04;13.70;99.90
41922;DHT22;27609;51.002;5.354;2023-11-19T12:22:31;13.80;99.90
41922;DHT22;27609;51.002;5.354;2023-11-19T12:24:57;14.00;99.90
41922;DHT22;27609;51.002;5.354;2023-11-19T12:27:23;14.40;99.90
41922;DHT22;27609;51.002;5.354;2023-11-19T12:29:49;14.60;99.90
41922;DHT22;27609;51.002;5.354;2023-11-19T12:32:15;14.50;99.90
41922;DHT22;27609;51.002;5.354;2023-11-19T12:34:41;15.00;99.90
41922;DHT22;27609;51.002;5.354;2023-11-19T12:37:07;15.30;99.90
41922;DHT22;27609;51.002;5.354;2023-11-19T12:39:35;15.20;99.90
41922;DHT22;27609;51.002;5.354;2023-11-19T12:42:01;15.10;99.90
41922;DHT22;27609;51.002;5.354;2023-11-19T12:44:26;14.90;99.90
41922;DHT22;27609;51.002;5.354;2023-11-19T12:47:05;14.60;99.90
41922;DHT22;27609;51.002;5.354;2023-11-19T12:49:32;14.40;99.90
41922;DHT22;27609;51.002;5.354;2023-11-19T12:51:59;14.20;99.90
41922;DHT22;27609;51.002;5.354;2023-11-19T12:54:35;14.10;99.90
41922;DHT22;27609;51.002;5.354;2023-11-19T12:57:01;14.00;99.90
41922;DHT22;27609;51.002;5.354;2023-11-19T12:59:27;13.80;99.90
41922;DHT22;27609;51.002;5.354;2023-11-19T13:02:00;13.70;99.90
41922;DHT22;27609;51.002;5.354;2023-11-19T13:04:29;13.60;99.90
41922;DHT22;27609;51.002;5.354;2023-11-19T13:07:02;13.50;99.90
41922;DHT22;27609;51.002;5.354;2023-11-19T13:09:30;13.50;99.90
41922;DHT22;27609;51.002;5.354;2023-11-19T13:11:56;13.40;99.90
41922;DHT22;27609;51.002;5.354;2023-11-19T13:14:23;13.30;99.90
41922;DHT22;27609;51.002;5.354;2023-11-19T13:16:49;13.20;99.90
41922;DHT22;27609;51.002;5.354;2023-11-19T13:19:18;13.10;99.90
41922;DHT22;27609;51.002;5.354;2023-11-19T13:21:44;13.10;99.90
41922;DHT22;27609;51.002;5.354;2023-11-19T13:24:13;13.10;99.90
41922;DHT22;27609;51.002;5.354;2023-11-19T13:26:38;13.00;99.90
41922;DHT22;27609;51.002;5.354;2023-11-19T13:29:05;13.20;99.90
41922;DHT22;27609;51.002;5.354;2023-11-19T13:31:30;13.40;99.90
41922;DHT22;27609;51.002;5.354;2023-11-19T13:33:56;14.00;99.90
41922;DHT22;27609;51.002;5.354;2023-11-19T13:36:23;14.40;99.90
41922;DHT22;27609;51.002;5.354;2023-11-19T13:38:49;14.80;99.90
41922;DHT22;27609;51.002;5.354;2023-11-19T13:41:15;14.60;99.90
41922;DHT22;27609;51.002;5.354;2023-11-19T13:43:41;14.30;99.90
41922;DHT22;27609;51.002;5.354;2023-11-19T13:46:07;14.00;99.90
41922;DHT22;27609;51.002;5.354;2023-11-19T13:48:35;13.90;99.90
41922;DHT22;27609;51.002;5.354;2023-11-19T13:51:01;13.70;99.90
41922;DHT22;27609;51.002;5.354;2023-11-19T13:53:26;13.60;99.90
41922;DHT22;27609;51.002;5.354;2023-11-19T13:55:52;13.50;99.90
41922;DHT22;27609;51.002;5.354;2023-11-19T13:58:18;13.40;99.90
41922;DHT22;27609;51.002;5.354;2023-11-19T14:00:44;13.40;99.90
41922;DHT22;27609;51.002;5.354;2023-11-19T14:03:10;13.40;99.90
41922;DHT22;27609;51.002;5.354;2023-11-19T14:05:39;13.40;99.90
41922;DHT22;27609;51.002;5.354;2023-11-19T14:08:06;13.30;99.90
41922;DHT22;27609;51.002;5.354;2023-11-19T14:10:38;13.30;99.90
41922;DHT22;27609;51.002;5.354;2023-11-19T14:13:08;13.30;99.90
41922;DHT22;27609;51.002;5.354;2023-11-19T14:15:34;13.20;99.90
41922;DHT22;27609;51.002;5.354;2023-11-19T14:18:00;13.10;99.90
41922;DHT22;27609;51.002;5.354;2023-11-19T14:20:26;13.10;99.90
41922;DHT22;27609;51.002;5.354;2023-11-19T14:22:52;13.00;99.90
41922;DHT22;27609;51.002;5.354;2023-11-19T14:25:18;13.20;99.90
41922;DHT22;27609;51.002;5.354;2023-11-19T14:27:45;13.50;99.90
41922;DHT22;27609;51.002;5.354;2023-11-19T14:30:14;13.70;99.90
41922;DHT22;27609;51.002;5.354;2023-11-19T14:32:41;13.70;99.90
41922;DHT22;27609;51.002;5.354;2023-11-19T14:35:11;13.70;99.90
41922;DHT22;27609;51.002;5.354;2023-11-19T14:37:37;13.70;99.90
41922;DHT22;27609;51.002;5.354;2023-11-19T14:40:03;13.40;99.90
41922;DHT22;27609;51.002;5.354;2023-11-19T14:42:31;13.20;99.90
41922;DHT22;27609;51.002;5.354;2023-11-19T14:44:56;13.00;99.90
41922;DHT22;27609;51.002;5.354;2023-11-19T14:47:22;12.90;99.90
41922;DHT22;27609;51.002;5.354;2023-11-19T14:49:48;12.90;99.90
41922;DHT22;27609;51.002;5.354;2023-11-19T14:52:14;12.90;99.90
41922;DHT22;27609;51.002;5.354;2023-11-19T14:54:40;12.90;99.90
41922;DHT22;27609;51.002;5.354;2023-11-19T14:57:06;12.90;99.90
41922;DHT22;27609;51.002;5.354;2023-11-19T14:59:34;12.80;99.90
41922;DHT22;27609;51.002;5.354;2023-11-19T15:02:00;12.80;99.90
41922;DHT22;27609;51.002;5.354;2023-11-19T15:04:29;12.80;99.90
41922;DHT22;27609;51.002;5.354;2023-11-19T15:06:59;12.80;99.90
41922;DHT22;27609;51.002;5.354;2023-11-19T15:09:25;12.90;99.90
41922;DHT22;27609;51.002;5.354;2023-11-19T15:11:53;12.80;99.90
41922;DHT22;27609;51.002;5.354;2023-11-19T15:14:19;12.80;99.90
41922;DHT22;27609;51.002;5.354;2023-11-19T15:16:46;12.80;99.90
41922;DHT22;27609;51.002;5.354;2023-11-19T15:19:12;12.80;99.90
41922;DHT22;27609;51.002;5.354;2023-11-19T15:21:40;12.80;99.90
41922;DHT22;27609;51.002;5.354;2023-11-19T15:24:06;12.80;99.90
41922;DHT22;27609;51.002;5.354;2023-11-19T15:26:34;12.80;99.90
41922;DHT22;27609;51.002;5.354;2023-11-19T15:28:59;12.80;99.90
41922;DHT22;27609;51.002;5.354;2023-11-19T15:31:25;12.90;99.90
41922;DHT22;27609;51.002;5.354;2023-11-19T15:33:51;12.90;99.90
41922;DHT22;27609;51.002;5.354;2023-11-19T15:36:17;12.90;99.90
41922;DHT22;27609;51.002;5.354;2023-11-19T15:38:43;12.90;99.90
41922;DHT22;27609;51.002;5.354;2023-11-19T15:41:09;12.80;99.90
41922;DHT22;27609;51.002;5.354;2023-11-19T15:43:35;12.90;99.90
41922;DHT22;27609;51.002;5.354;2023-11-19T15:46:05;12.90;99.90
41922;DHT22;27609;51.002;5.354;2023-11-19T15:48:30;12.90;99.90
41922;DHT22;27609;51.002;5.354;2023-11-19T15:50:56;12.90;99.90
41922;DHT22;27609;51.002;5.354;2023-11-19T15:53:22;12.90;99.90